sensor_id;sensor_type;location;lat;lon;timestamp;temperature;humidity
10390;DHT22;5241;47.830;12.972;2023-05-07T00:01:51;13.50;99.90
10390;DHT22;5241;47.830;12.972;2023-05-07T00:04:17;13.50;99.90
10390;DHT22;5241;47.830;12.972;2023-05-07T00:06:42;13.40;99.90
10390;DHT22;5241;47.830;12.972;2023-05-07T00:09:08;13.50;99.90
10390;DHT22;5241;47.830;12.972;2023-05-07T00:11:34;13.40;99.90
10390;DHT22;5241;47.830;12.972;2023-05-07T00:14:00;13.40;99.90
10390;DHT22;5241;47.830;12.972;2023-05-07T00:16:25;13.40;99.90
10390;DHT22;5241;47.830;12.972;2023-05-07T00:18:51;13.50;99.90
10390;DHT22;5241;47.830;12.972;2023-05-07T00:21:17;13.50;99.90
10390;DHT22;5241;47.830;12.972;2023-05-07T00:23:42;13.50;99.90
10390;DHT22;5241;47.830;12.972;2023-05-07T00:26:08;13.50;99.90
10390;DHT22;5241;47.830;12.972;2023-05-07T00:28:34;13.40;99.90
10390;DHT22;5241;47.830;12.972;2023-05-07T00:30:59;13.40;99.90
10390;DHT22;5241;47.830;12.972;2023-05-07T00:33:25;13.40;99.90
10390;DHT22;5241;47.830;12.972;2023-05-07T00:35:52;13.40;99.90
10390;DHT22;5241;47.830;12.972;2023-05-07T00:38:19;13.40;99.90
10390;DHT22;5241;47.830;12.972;2023-05-07T00:40:45;13.30;99.90
10390;DHT22;5241;47.830;12.972;2023-05-07T00:43:10;13.20;99.90
10390;DHT22;5241;47.830;12.972;2023-05-07T00:45:36;13.20;99.90
10390;DHT22;5241;47.830;12.972;2023-05-07T00:48:02;13.10;99.90
10390;DHT22;5241;47.830;12.972;2023-05-07T00:50:28;13.10;99.90
10390;DHT22;5241;47.830;12.972;2023-05-07T00:52:55;13.10;99.90
10390;DHT22;5241;47.830;12.972;2023-05-07T00:55:22;13.10;99.90
10390;DHT22;5241;47.830;12.972;2023-05-07T00:57:48;13.10;99.90
10390;DHT22;5241;47.830;12.972;2023-05-07T01:00:14;13.10;99.90
10390;DHT22;5241;47.830;12.972;2023-05-07T01:02:40;13.00;99.90
10390;DHT22;5241;47.830;12.972;2023-05-07T01:05:09;13.00;99.90
10390;DHT22;5241;47.830;12.972;2023-05-07T01:07:36;13.00;99.90
10390;DHT22;5241;47.830;12.972;2023-05-07T01:10:03;13.00;99.90
10390;DHT22;5241;47.830;12.972;2023-05-07T01:12:30;13.10;99.90
10390;DHT22;5241;47.830;12.972;2023-05-07T01:14:56;13.00;99.90
10390;DHT22;5241;47.830;12.972;2023-05-07T01:17:23;13.00;99.90
10390;DHT22;5241;47.830;12.972;2023-05-07T01:19:48;13.10;99.90
10390;DHT22;5241;47.830;12.972;2023-05-07T01:22:15;13.10;99.90
10390;DHT22;5241;47.830;12.972;2023-05-07T01:24:42;13.10;99.90
10390;DHT22;5241;47.830;12.972;2023-05-07T01:27:07;13.10;99.90
10390;DHT22;5241;47.830;12.972;2023-05-07T01:29:33;13.10;99.90
10390;DHT22;5241;47.830;12.972;2023-05-07T01:32:00;13.10;99.90
10390;DHT22;5241;47.830;12.972;2023-05-07T01:34:28;13.20;99.90
10390;DHT22;5241;47.830;12.972;2023-05-07T01:36:56;13.20;99.90
10390;DHT22;5241;47.830;12.972;2023-05-07T01:39:25;13.20;99.90
10390;DHT22;5241;47.830;12.972;2023-05-07T01:41:51;13.10;99.90
10390;DHT22;5241;47.830;12.972;2023-05-07T01:44:17;13.20;99.90
10390;DHT22;5241;47.830;12.972;2023-05-07T01:46:43;13.20;99.90
10390;DHT22;5241;47.830;12.972;2023-05-07T01:49:09;13.10;99.90
10390;DHT22;5241;47.830;12.972;2023-05-07T01:51:35;13.20;99.90
10390;DHT22;5241;47.830;12.972;2023-05-07T01:54:01;13.10;99.90
10390;DHT22;5241;47.830;12.972;2023-05-07T01:56:27;13.20;99.90
10390;DHT22;5241;47.830;12.972;2023-05-07T01:58:52;13.10;99.90
10390;DHT22;5241;47.830;12.972;2023-05-07T02:01:18;13.00;99.90
10390;DHT22;5241;47.830;12.972;2023-05-07T02:03:44;13.00;99.90
10390;DHT22;5241;47.830;12.972;2023-05-07T02:06:09;12.90;99.90
10390;DHT22;5241;47.830;12.972;2023-05-07T02:08:35;12.90;99.90
10390;DHT22;5241;47.830;12.972;2023-05-07T02:11:01;12.90;99.90
10390;DHT22;5241;47.830;12.972;2023-05-07T02:13:29;12.90;99.90
10390;DHT22;5241;47.830;12.972;2023-05-07T02:15:55;12.80;99.90
10390;DHT22;5241;47.830;12.972;2023-05-07T02:18:21;12.90;99.90
10390;DHT22;5241;47.830;12.972;2023-05-07T02:20:47;12.80;99.90
10390;DHT22;5241;47.830;12.972;2023-05-07T02:23:12;12.80;99.90
10390;DHT22;5241;47.830;12.972;2023-05-07T02:25:38;12.70;99.90
10390;DHT22;5241;47.830;12.972;2023-05-07T02:28:03;12.70;99.90
10390;DHT22;5241;47.830;12.972;2023-05-07T02:30:29;12.70;99.90
10390;DHT22;5241;47.830;12.972;2023-05-07T02:32:54;12.60;99.90
10390;DHT22;5241;47.830;12.972;2023-05-07T02:35:20;12.60;99.90
10390;DHT22;5241;47.830;12.972;2023-05-07T02:37:45;12.60;99.90
10390;DHT22;5241;47.830;12.972;2023-05-07T02:40:11;12.50;99.90
10390;DHT22;5241;47.830;12.972;2023-05-07T02:42:37;12.50;99.90
10390;DHT22;5241;47.830;12.972;2023-05-07T02:45:03;12.50;99.90
10390;DHT22;5241;47.830;12.972;2023-05-07T02:47:29;12.50;99.90
10390;DHT22;5241;47.830;12.972;2023-05-07T02:49:55;12.60;99.90
10390;DHT22;5241;47.830;12.972;2023-05-07T02:52:21;12.50;99.90
10390;DHT22;5241;47.830;12.972;2023-05-07T02:54:47;12.50;99.90
10390;DHT22;5241;47.830;12.972;2023-05-07T02:57:12;12.50;99.90
10390;DHT22;5241;47.830;12.972;2023-05-07T02:59:38;12.50;99.90
10390;DHT22;5241;47.830;12.972;2023-05-07T03:02:03;12.50;99.90
10390;DHT22;5241;47.830;12.972;2023-05-07T03:04:29;12.40;99.90
10390;DHT22;5241;47.830;12.972;2023-05-07T03:06:54;12.40;99.90
10390;DHT22;5241;47.830;12.972;2023-05-07T03:09:20;12.50;99.90
10390;DHT22;5241;47.830;12.972;2023-05-07T03:11:46;12.40;99.90
10390;DHT22;5241;47.830;12.972;2023-05-07T03:14:11;12.40;99.90
10390;DHT22;5241;47.830;12.972;2023-05-07T03:16:37;12.40;99.90
10390;DHT22;5241;47.830;12.972;2023-05-07T03:19:03;12.40;99.90
10390;DHT22;5241;47.830;12.972;2023-05-07T03:21:28;12.40;99.90
10390;DHT22;5241;47.830;12.972;2023-05-07T03:23:55;12.30;99.90
10390;DHT22;5241;47.830;12.972;2023-05-07T03:26:21;12.30;99.90
10390;DHT22;5241;47.830;12.972;2023-05-07T03:28:47;12.30;99.90
10390;DHT22;5241;47.830;12.972;2023-05-07T03:31:12;12.30;99.90
10390;DHT22;5241;47.830;12.972;2023-05-07T03:33:52;12.40;99.90
10390;DHT22;5241;47.830;12.972;2023-05-07T03:36:18;12.40;99.90
10390;DHT22;5241;47.830;12.972;2023-05-07T03:38:44;12.40;99.90
10390;DHT22;5241;47.830;12.972;2023-05-07T03:41:11;12.40;99.90
10390;DHT22;5241;47.830;12.972;2023-05-07T03:43:37;12.40;99.90
10390;DHT22;5241;47.830;12.972;2023-05-07T03:46:02;12.30;99.90
10390;DHT22;5241;47.830;12.972;2023-05-07T03:48:28;12.30;99.90
10390;DHT22;5241;47.830;12.972;2023-05-07T03:50:53;12.30;99.90
10390;DHT22;5241;47.830;12.972;2023-05-07T03:53:19;12.30;99.90
10390;DHT22;5241;47.830;12.972;2023-05-07T03:55:44;12.40;99.90
10390;DHT22;5241;47.830;12.972;2023-05-07T03:58:10;12.40;99.90
10390;DHT22;5241;47.830;12.972;2023-05-07T04:00:35;12.40;99.90
10390;DHT22;5241;47.830;12.972;2023-05-07T04:03:04;12.50;99.90
10390;DHT22;5241;47.830;12.972;2023-05-07T04:05:30;12.50;99.90
10390;DHT22;5241;47.830;12.972;2023-05-07T04:07:58;12.60;99.90
10390;DHT22;5241;47.830;12.972;2023-05-07T04:10:23;12.60;99.90
10390;DHT22;5241;47.830;12.972;2023-05-07T04:12:49;12.60;99.90
10390;DHT22;5241;47.830;12.972;2023-05-07T04:15:14;12.60;99.90
10390;DHT22;5241;47.830;12.972;2023-05-07T04:17:40;12.70;99.90
10390;DHT22;5241;47.830;12.972;2023-05-07T04:20:09;12.60;99.90
10390;DHT22;5241;47.830;12.972;2023-05-07T04:22:35;12.70;99.90
10390;DHT22;5241;47.830;12.972;2023-05-07T04:25:01;12.70;99.90
10390;DHT22;5241;47.830;12.972;2023-05-07T04:27:27;12.80;99.90
10390;DHT22;5241;47.830;12.972;2023-05-07T04:29:53;12.80;99.90
10390;DHT22;5241;47.830;12.972;2023-05-07T04:32:21;12.80;99.90
10390;DHT22;5241;47.830;12.972;2023-05-07T04:34:46;12.90;99.90
10390;DHT22;5241;47.830;12.972;2023-05-07T04:37:12;12.90;99.90
10390;DHT22;5241;47.830;12.972;2023-05-07T04:39:37;12.90;99.90
10390;DHT22;5241;47.830;12.972;2023-05-07T04:42:03;12.90;99.90
10390;DHT22;5241;47.830;12.972;2023-05-07T04:44:28;13.00;99.90
10390;DHT22;5241;47.830;12.972;2023-05-07T04:46:56;13.00;99.90
10390;DHT22;5241;47.830;12.972;2023-05-07T04:49:22;13.00;99.90
10390;DHT22;5241;47.830;12.972;2023-05-07T04:51:47;13.00;99.90
10390;DHT22;5241;47.830;12.972;2023-05-07T04:54:13;13.00;99.90
10390;DHT22;5241;47.830;12.972;2023-05-07T04:56:38;13.00;99.90
10390;DHT22;5241;47.830;12.972;2023-05-07T04:59:04;13.10;99.90
10390;DHT22;5241;47.830;12.972;2023-05-07T05:01:30;13.20;99.90
10390;DHT22;5241;47.830;12.972;2023-05-07T05:03:55;13.30;99.90
10390;DHT22;5241;47.830;12.972;2023-05-07T05:06:21;13.30;99.90
10390;DHT22;5241;47.830;12.972;2023-05-07T05:08:46;13.40;99.90
10390;DHT22;5241;47.830;12.972;2023-05-07T05:11:12;13.40;99.90
10390;DHT22;5241;47.830;12.972;2023-05-07T05:13:37;13.50;99.90
10390;DHT22;5241;47.830;12.972;2023-05-07T05:16:03;13.60;99.90
10390;DHT22;5241;47.830;12.972;2023-05-07T05:18:28;13.70;99.90
10390;DHT22;5241;47.830;12.972;2023-05-07T05:20:54;13.70;99.90
10390;DHT22;5241;47.830;12.972;2023-05-07T05:23:20;13.80;99.90
10390;DHT22;5241;47.830;12.972;2023-05-07T05:25:45;13.80;99.90
10390;DHT22;5241;47.830;12.972;2023-05-07T05:28:11;13.90;99.90
10390;DHT22;5241;47.830;12.972;2023-05-07T05:30:36;13.90;99.90
10390;DHT22;5241;47.830;12.972;2023-05-07T05:33:02;13.90;99.90
10390;DHT22;5241;47.830;12.972;2023-05-07T05:35:29;13.80;99.90
10390;DHT22;5241;47.830;12.972;2023-05-07T05:37:55;13.90;99.90
10390;DHT22;5241;47.830;12.972;2023-05-07T05:40:20;14.00;99.90
10390;DHT22;5241;47.830;12.972;2023-05-07T05:42:46;14.10;99.90
10390;DHT22;5241;47.830;12.972;2023-05-07T05:45:11;14.20;99.90
10390;DHT22;5241;47.830;12.972;2023-05-07T05:47:37;14.30;99.90
10390;DHT22;5241;47.830;12.972;2023-05-07T05:50:04;14.30;99.90
10390;DHT22;5241;47.830;12.972;2023-05-07T05:52:31;14.50;99.90
10390;DHT22;5241;47.830;12.972;2023-05-07T05:54:57;14.60;99.90
10390;DHT22;5241;47.830;12.972;2023-05-07T05:57:22;14.70;99.90
10390;DHT22;5241;47.830;12.972;2023-05-07T05:59:48;14.80;99.90
10390;DHT22;5241;47.830;12.972;2023-05-07T06:02:13;15.00;99.90
10390;DHT22;5241;47.830;12.972;2023-05-07T06:04:39;15.10;99.90
10390;DHT22;5241;47.830;12.972;2023-05-07T06:07:05;15.30;99.90
10390;DHT22;5241;47.830;12.972;2023-05-07T06:09:30;15.40;99.90
10390;DHT22;5241;47.830;12.972;2023-05-07T06:11:56;15.70;99.90
10390;DHT22;5241;47.830;12.972;2023-05-07T06:14:21;15.80;99.90
10390;DHT22;5241;47.830;12.972;2023-05-07T06:16:47;15.90;99.90
10390;DHT22;5241;47.830;12.972;2023-05-07T06:19:12;16.30;99.90
10390;DHT22;5241;47.830;12.972;2023-05-07T06:21:39;16.70;99.90
10390;DHT22;5241;47.830;12.972;2023-05-07T06:24:05;16.90;99.90
10390;DHT22;5241;47.830;12.972;2023-05-07T06:26:31;17.30;99.90
10390;DHT22;5241;47.830;12.972;2023-05-07T06:28:56;17.50;99.90
10390;DHT22;5241;47.830;12.972;2023-05-07T06:31:22;17.60;99.90
10390;DHT22;5241;47.830;12.972;2023-05-07T06:33:49;18.00;99.90
10390;DHT22;5241;47.830;12.972;2023-05-07T06:36:15;18.20;99.90
10390;DHT22;5241;47.830;12.972;2023-05-07T06:38:41;18.70;99.90
10390;DHT22;5241;47.830;12.972;2023-05-07T06:41:06;18.90;99.90
10390;DHT22;5241;47.830;12.972;2023-05-07T06:43:33;19.00;99.90
10390;DHT22;5241;47.830;12.972;2023-05-07T06:45:58;19.10;99.90
10390;DHT22;5241;47.830;12.972;2023-05-07T06:48:24;19.20;99.90
10390;DHT22;5241;47.830;12.972;2023-05-07T06:50:49;19.20;99.90
10390;DHT22;5241;47.830;12.972;2023-05-07T06:53:15;19.40;99.90
10390;DHT22;5241;47.830;12.972;2023-05-07T06:55:41;19.50;99.90
10390;DHT22;5241;47.830;12.972;2023-05-07T06:58:07;19.50;99.90
10390;DHT22;5241;47.830;12.972;2023-05-07T07:00:32;19.90;99.90
10390;DHT22;5241;47.830;12.972;2023-05-07T07:02:59;19.90;99.90
10390;DHT22;5241;47.830;12.972;2023-05-07T07:05:25;20.00;99.90
10390;DHT22;5241;47.830;12.972;2023-05-07T07:07:51;20.50;99.90
10390;DHT22;5241;47.830;12.972;2023-05-07T07:10:20;21.20;99.90
10390;DHT22;5241;47.830;12.972;2023-05-07T07:12:45;21.40;99.90
10390;DHT22;5241;47.830;12.972;2023-05-07T07:15:11;21.50;99.90
10390;DHT22;5241;47.830;12.972;2023-05-07T07:17:37;21.80;99.90
10390;DHT22;5241;47.830;12.972;2023-05-07T07:20:03;21.80;99.90
10390;DHT22;5241;47.830;12.972;2023-05-07T07:22:28;21.70;99.90
10390;DHT22;5241;47.830;12.972;2023-05-07T07:24:54;22.10;99.90
10390;DHT22;5241;47.830;12.972;2023-05-07T07:27:20;22.40;99.90
10390;DHT22;5241;47.830;12.972;2023-05-07T07:29:45;22.50;99.50
10390;DHT22;5241;47.830;12.972;2023-05-07T07:32:11;22.40;99.90
10390;DHT22;5241;47.830;12.972;2023-05-07T07:34:36;22.10;99.90
10390;DHT22;5241;47.830;12.972;2023-05-07T07:37:02;22.10;99.90
10390;DHT22;5241;47.830;12.972;2023-05-07T07:39:31;21.40;99.90
10390;DHT22;5241;47.830;12.972;2023-05-07T07:41:56;21.90;99.90
10390;DHT22;5241;47.830;12.972;2023-05-07T07:44:22;21.80;99.90
10390;DHT22;5241;47.830;12.972;2023-05-07T07:46:47;20.80;99.90
10390;DHT22;5241;47.830;12.972;2023-05-07T07:49:13;21.50;99.90
10390;DHT22;5241;47.830;12.972;2023-05-07T07:51:39;21.70;99.90
10390;DHT22;5241;47.830;12.972;2023-05-07T07:54:05;21.90;99.90
10390;DHT22;5241;47.830;12.972;2023-05-07T07:56:32;22.40;99.60
10390;DHT22;5241;47.830;12.972;2023-05-07T07:58:58;22.30;99.10
10390;DHT22;5241;47.830;12.972;2023-05-07T08:01:24;22.20;99.90
10390;DHT22;5241;47.830;12.972;2023-05-07T08:03:50;22.90;97.80
10390;DHT22;5241;47.830;12.972;2023-05-07T08:06:15;22.50;98.30
10390;DHT22;5241;47.830;12.972;2023-05-07T08:08:41;22.60;97.80
10390;DHT22;5241;47.830;12.972;2023-05-07T08:11:06;21.90;99.40
10390;DHT22;5241;47.830;12.972;2023-05-07T08:13:32;22.30;99.30
10390;DHT22;5241;47.830;12.972;2023-05-07T08:15:58;23.20;97.60
10390;DHT22;5241;47.830;12.972;2023-05-07T08:18:24;23.30;97.20
10390;DHT22;5241;47.830;12.972;2023-05-07T08:20:50;23.90;95.20
10390;DHT22;5241;47.830;12.972;2023-05-07T08:23:16;23.90;94.90
10390;DHT22;5241;47.830;12.972;2023-05-07T08:25:41;23.40;95.10
10390;DHT22;5241;47.830;12.972;2023-05-07T08:28:10;23.30;95.30
10390;DHT22;5241;47.830;12.972;2023-05-07T08:30:36;23.00;95.40
10390;DHT22;5241;47.830;12.972;2023-05-07T08:33:01;23.40;95.30
10390;DHT22;5241;47.830;12.972;2023-05-07T08:35:27;23.80;94.30
10390;DHT22;5241;47.830;12.972;2023-05-07T08:37:53;23.50;96.90
10390;DHT22;5241;47.830;12.972;2023-05-07T08:40:20;23.40;96.30
10390;DHT22;5241;47.830;12.972;2023-05-07T08:42:49;23.50;94.80
10390;DHT22;5241;47.830;12.972;2023-05-07T08:45:17;22.90;96.40
10390;DHT22;5241;47.830;12.972;2023-05-07T08:47:47;22.80;98.10
10390;DHT22;5241;47.830;12.972;2023-05-07T08:50:13;23.60;95.30
10390;DHT22;5241;47.830;12.972;2023-05-07T08:52:42;24.20;95.60
10390;DHT22;5241;47.830;12.972;2023-05-07T08:55:09;23.40;95.30
10390;DHT22;5241;47.830;12.972;2023-05-07T08:57:35;23.30;96.80
10390;DHT22;5241;47.830;12.972;2023-05-07T09:00:01;23.30;97.90
10390;DHT22;5241;47.830;12.972;2023-05-07T09:02:28;23.40;97.20
10390;DHT22;5241;47.830;12.972;2023-05-07T09:04:53;23.40;97.30
10390;DHT22;5241;47.830;12.972;2023-05-07T09:07:20;23.10;98.30
10390;DHT22;5241;47.830;12.972;2023-05-07T09:09:46;23.10;99.20
10390;DHT22;5241;47.830;12.972;2023-05-07T09:12:11;24.10;96.70
10390;DHT22;5241;47.830;12.972;2023-05-07T09:14:38;24.10;96.70
10390;DHT22;5241;47.830;12.972;2023-05-07T09:17:03;23.90;96.80
10390;DHT22;5241;47.830;12.972;2023-05-07T09:19:30;24.50;96.50
10390;DHT22;5241;47.830;12.972;2023-05-07T09:21:59;24.10;95.60
10390;DHT22;5241;47.830;12.972;2023-05-07T09:24:26;23.90;94.90
10390;DHT22;5241;47.830;12.972;2023-05-07T09:26:53;24.20;96.30
10390;DHT22;5241;47.830;12.972;2023-05-07T09:29:20;24.30;94.80
10390;DHT22;5241;47.830;12.972;2023-05-07T09:31:46;23.70;96.20
10390;DHT22;5241;47.830;12.972;2023-05-07T09:34:11;23.40;94.70
10390;DHT22;5241;47.830;12.972;2023-05-07T09:36:37;24.10;93.90
10390;DHT22;5241;47.830;12.972;2023-05-07T09:39:03;24.30;94.00
10390;DHT22;5241;47.830;12.972;2023-05-07T09:41:30;24.80;93.80
10390;DHT22;5241;47.830;12.972;2023-05-07T09:43:57;25.10;93.60
10390;DHT22;5241;47.830;12.972;2023-05-07T09:46:28;25.90;91.90
10390;DHT22;5241;47.830;12.972;2023-05-07T09:48:57;25.60;90.80
10390;DHT22;5241;47.830;12.972;2023-05-07T09:51:33;25.40;90.90
10390;DHT22;5241;47.830;12.972;2023-05-07T09:54:04;24.90;92.80
10390;DHT22;5241;47.830;12.972;2023-05-07T09:56:30;24.40;92.00
10390;DHT22;5241;47.830;12.972;2023-05-07T09:58:59;24.50;91.40
10390;DHT22;5241;47.830;12.972;2023-05-07T10:01:26;24.60;92.80
10390;DHT22;5241;47.830;12.972;2023-05-07T10:03:52;24.80;92.90
10390;DHT22;5241;47.830;12.972;2023-05-07T10:06:19;25.10;90.00
10390;DHT22;5241;47.830;12.972;2023-05-07T10:08:45;24.90;92.40
10390;DHT22;5241;47.830;12.972;2023-05-07T10:11:11;25.30;91.80
10390;DHT22;5241;47.830;12.972;2023-05-07T10:13:37;25.20;90.10
10390;DHT22;5241;47.830;12.972;2023-05-07T10:16:04;25.90;91.00
10390;DHT22;5241;47.830;12.972;2023-05-07T10:18:31;25.30;91.20
10390;DHT22;5241;47.830;12.972;2023-05-07T10:21:08;24.80;92.90
10390;DHT22;5241;47.830;12.972;2023-05-07T10:23:34;25.10;91.60
10390;DHT22;5241;47.830;12.972;2023-05-07T10:26:03;25.20;90.70
10390;DHT22;5241;47.830;12.972;2023-05-07T10:28:32;25.70;88.40
10390;DHT22;5241;47.830;12.972;2023-05-07T10:31:18;25.70;87.10
10390;DHT22;5241;47.830;12.972;2023-05-07T10:33:48;25.50;88.40
10390;DHT22;5241;47.830;12.972;2023-05-07T10:36:16;25.30;89.10
10390;DHT22;5241;47.830;12.972;2023-05-07T10:38:42;25.10;85.60
10390;DHT22;5241;47.830;12.972;2023-05-07T10:41:08;25.40;88.30
10390;DHT22;5241;47.830;12.972;2023-05-07T10:43:44;25.70;83.90
10390;DHT22;5241;47.830;12.972;2023-05-07T10:46:22;25.50;86.60
10390;DHT22;5241;47.830;12.972;2023-05-07T10:51:27;25.80;80.10
10390;DHT22;5241;47.830;12.972;2023-05-07T10:56:41;26.10;83.60
10390;DHT22;5241;47.830;12.972;2023-05-07T11:02:02;24.30;82.80
10390;DHT22;5241;47.830;12.972;2023-05-07T11:04:29;24.50;85.20
10390;DHT22;5241;47.830;12.972;2023-05-07T11:15:14;25.80;79.70
10390;DHT22;5241;47.830;12.972;2023-05-07T11:17:59;25.70;82.10
10390;DHT22;5241;47.830;12.972;2023-05-07T11:20:47;25.30;78.80
10390;DHT22;5241;47.830;12.972;2023-05-07T11:28:30;25.80;77.00
10390;DHT22;5241;47.830;12.972;2023-05-07T11:30:56;26.20;75.80
10390;DHT22;5241;47.830;12.972;2023-05-07T11:33:23;26.20;75.10
10390;DHT22;5241;47.830;12.972;2023-05-07T11:35:52;26.30;75.80
10390;DHT22;5241;47.830;12.972;2023-05-07T11:38:19;26.60;77.30
10390;DHT22;5241;47.830;12.972;2023-05-07T11:40:51;26.40;74.60
10390;DHT22;5241;47.830;12.972;2023-05-07T11:43:17;26.80;74.50
10390;DHT22;5241;47.830;12.972;2023-05-07T11:45:44;26.60;77.90
10390;DHT22;5241;47.830;12.972;2023-05-07T11:48:10;27.00;74.60
10390;DHT22;5241;47.830;12.972;2023-05-07T11:50:35;26.50;74.10
10390;DHT22;5241;47.830;12.972;2023-05-07T11:53:07;27.80;70.60
10390;DHT22;5241;47.830;12.972;2023-05-07T11:55:33;27.70;70.60
10390;DHT22;5241;47.830;12.972;2023-05-07T11:57:58;27.50;67.80
10390;DHT22;5241;47.830;12.972;2023-05-07T12:00:24;27.30;70.10
10390;DHT22;5241;47.830;12.972;2023-05-07T12:02:50;27.20;66.90
10390;DHT22;5241;47.830;12.972;2023-05-07T12:05:15;27.60;66.40
10390;DHT22;5241;47.830;12.972;2023-05-07T12:07:41;26.90;70.20
10390;DHT22;5241;47.830;12.972;2023-05-07T12:10:07;27.00;68.90
10390;DHT22;5241;47.830;12.972;2023-05-07T12:12:45;27.00;71.40
10390;DHT22;5241;47.830;12.972;2023-05-07T12:15:11;27.30;68.80
10390;DHT22;5241;47.830;12.972;2023-05-07T12:17:36;27.50;67.00
10390;DHT22;5241;47.830;12.972;2023-05-07T12:20:03;27.30;68.70
10390;DHT22;5241;47.830;12.972;2023-05-07T12:22:28;27.60;70.40
10390;DHT22;5241;47.830;12.972;2023-05-07T12:24:58;27.80;66.10
10390;DHT22;5241;47.830;12.972;2023-05-07T12:27:24;27.70;67.00
10390;DHT22;5241;47.830;12.972;2023-05-07T12:29:50;27.90;66.30
10390;DHT22;5241;47.830;12.972;2023-05-07T12:32:20;28.00;64.00
10390;DHT22;5241;47.830;12.972;2023-05-07T12:34:49;27.90;64.30
10390;DHT22;5241;47.830;12.972;2023-05-07T12:37:14;28.10;66.10
10390;DHT22;5241;47.830;12.972;2023-05-07T12:39:50;27.80;65.30
10390;DHT22;5241;47.830;12.972;2023-05-07T12:42:18;27.30;65.20
10390;DHT22;5241;47.830;12.972;2023-05-07T12:44:46;26.90;67.10
10390;DHT22;5241;47.830;12.972;2023-05-07T12:47:11;26.60;68.40
10390;DHT22;5241;47.830;12.972;2023-05-07T12:49:38;26.90;67.80
10390;DHT22;5241;47.830;12.972;2023-05-07T12:52:04;27.10;67.00
10390;DHT22;5241;47.830;12.972;2023-05-07T12:54:32;27.00;67.60
10390;DHT22;5241;47.830;12.972;2023-05-07T12:57:05;27.10;67.80
10390;DHT22;5241;47.830;12.972;2023-05-07T12:59:36;27.20;66.50
10390;DHT22;5241;47.830;12.972;2023-05-07T13:02:02;27.80;67.30
10390;DHT22;5241;47.830;12.972;2023-05-07T13:04:28;28.20;66.80
10390;DHT22;5241;47.830;12.972;2023-05-07T13:06:54;28.10;65.30
10390;DHT22;5241;47.830;12.972;2023-05-07T13:09:19;28.50;63.30
10390;DHT22;5241;47.830;12.972;2023-05-07T13:11:45;27.80;65.80
10390;DHT22;5241;47.830;12.972;2023-05-07T13:14:11;27.30;65.40
10390;DHT22;5241;47.830;12.972;2023-05-07T13:16:37;27.40;65.10
10390;DHT22;5241;47.830;12.972;2023-05-07T13:19:02;27.70;64.30
10390;DHT22;5241;47.830;12.972;2023-05-07T13:21:28;27.60;67.00
10390;DHT22;5241;47.830;12.972;2023-05-07T13:23:53;27.90;64.60
10390;DHT22;5241;47.830;12.972;2023-05-07T13:26:19;27.60;64.20
10390;DHT22;5241;47.830;12.972;2023-05-07T13:28:45;27.50;65.10
10390;DHT22;5241;47.830;12.972;2023-05-07T13:31:11;27.20;66.70
10390;DHT22;5241;47.830;12.972;2023-05-07T13:33:37;27.70;64.50
10390;DHT22;5241;47.830;12.972;2023-05-07T13:36:02;26.90;66.40
10390;DHT22;5241;47.830;12.972;2023-05-07T13:38:30;26.50;67.90
10390;DHT22;5241;47.830;12.972;2023-05-07T13:40:55;26.80;66.50
10390;DHT22;5241;47.830;12.972;2023-05-07T13:43:21;26.80;65.90
10390;DHT22;5241;47.830;12.972;2023-05-07T13:45:46;27.40;66.70
10390;DHT22;5241;47.830;12.972;2023-05-07T13:48:12;27.60;66.10
10390;DHT22;5241;47.830;12.972;2023-05-07T13:50:37;27.90;66.20
10390;DHT22;5241;47.830;12.972;2023-05-07T13:53:03;27.70;64.00
10390;DHT22;5241;47.830;12.972;2023-05-07T13:55:29;26.90;65.40
10390;DHT22;5241;47.830;12.972;2023-05-07T13:57:56;26.00;68.50
10390;DHT22;5241;47.830;12.972;2023-05-07T14:00:22;26.10;69.70
10390;DHT22;5241;47.830;12.972;2023-05-07T14:02:48;26.30;69.20
10390;DHT22;5241;47.830;12.972;2023-05-07T14:05:14;25.90;68.00
10390;DHT22;5241;47.830;12.972;2023-05-07T14:07:39;26.00;70.80
10390;DHT22;5241;47.830;12.972;2023-05-07T14:10:05;26.20;69.50
10390;DHT22;5241;47.830;12.972;2023-05-07T14:12:32;26.00;68.80
10390;DHT22;5241;47.830;12.972;2023-05-07T14:14:58;26.10;67.70
10390;DHT22;5241;47.830;12.972;2023-05-07T14:17:23;25.80;68.30
10390;DHT22;5241;47.830;12.972;2023-05-07T14:19:51;25.60;68.90
10390;DHT22;5241;47.830;12.972;2023-05-07T14:22:20;26.20;70.20
10390;DHT22;5241;47.830;12.972;2023-05-07T14:24:45;27.30;66.90
10390;DHT22;5241;47.830;12.972;2023-05-07T14:27:11;27.30;65.90
10390;DHT22;5241;47.830;12.972;2023-05-07T14:29:36;27.00;65.40
10390;DHT22;5241;47.830;12.972;2023-05-07T14:32:02;26.60;65.40
10390;DHT22;5241;47.830;12.972;2023-05-07T14:34:28;25.80;68.00
10390;DHT22;5241;47.830;12.972;2023-05-07T14:36:54;25.60;68.60
10390;DHT22;5241;47.830;12.972;2023-05-07T14:39:21;25.20;68.70
10390;DHT22;5241;47.830;12.972;2023-05-07T14:41:46;25.40;70.10
10390;DHT22;5241;47.830;12.972;2023-05-07T14:44:12;25.40;69.80
10390;DHT22;5241;47.830;12.972;2023-05-07T14:46:38;25.10;70.10
10390;DHT22;5241;47.830;12.972;2023-05-07T14:49:03;25.00;70.10
10390;DHT22;5241;47.830;12.972;2023-05-07T14:51:29;25.20;70.00
10390;DHT22;5241;47.830;12.972;2023-05-07T14:53:55;24.90;70.10
10390;DHT22;5241;47.830;12.972;2023-05-07T14:56:21;24.80;71.00
10390;DHT22;5241;47.830;12.972;2023-05-07T14:58:47;24.50;71.40
10390;DHT22;5241;47.830;12.972;2023-05-07T15:01:14;24.30;73.40
10390;DHT22;5241;47.830;12.972;2023-05-07T15:03:39;24.30;73.50
10390;DHT22;5241;47.830;12.972;2023-05-07T15:06:05;24.20;74.40
10390;DHT22;5241;47.830;12.972;2023-05-07T15:08:31;24.20;74.80
10390;DHT22;5241;47.830;12.972;2023-05-07T15:10:56;24.50;74.40
10390;DHT22;5241;47.830;12.972;2023-05-07T15:13:22;24.20;75.00
10390;DHT22;5241;47.830;12.972;2023-05-07T15:15:47;23.80;75.10
10390;DHT22;5241;47.830;12.972;2023-05-07T15:18:14;23.40;76.60
10390;DHT22;5241;47.830;12.972;2023-05-07T15:20:41;23.10;76.50
10390;DHT22;5241;47.830;12.972;2023-05-07T15:23:07;23.00;78.10
10390;DHT22;5241;47.830;12.972;2023-05-07T15:25:37;23.10;78.20
10390;DHT22;5241;47.830;12.972;2023-05-07T15:28:03;23.00;77.20
10390;DHT22;5241;47.830;12.972;2023-05-07T15:30:29;22.80;78.20
10390;DHT22;5241;47.830;12.972;2023-05-07T15:32:54;22.60;77.80
10390;DHT22;5241;47.830;12.972;2023-05-07T15:35:20;22.50;78.20
10390;DHT22;5241;47.830;12.972;2023-05-07T15:37:48;22.50;79.60
10390;DHT22;5241;47.830;12.972;2023-05-07T15:40:15;22.30;79.10
10390;DHT22;5241;47.830;12.972;2023-05-07T15:42:40;22.00;80.00
10390;DHT22;5241;47.830;12.972;2023-05-07T15:45:06;22.00;80.10
10390;DHT22;5241;47.830;12.972;2023-05-07T15:47:33;22.00;80.90